Terminal Aerodrome Forecast
Issued by NWS

Home | Current Version | Previous Version | Text Only | Print | Product List | Glossary On
Versions: 1 2 3 4 5 6 7 8 9 10 11 12 13 14
212
FTUS43 KMQT 110526
TAFIWD
TAF
KIWD 110526Z 1106/1206 30008KT P6SM VCSH BKN026
     FM111200 28006KT P6SM VCSH BKN030
     FM111500 27007KT P6SM VCSH SCT030
     FM111700 26007KT P6SM SCT050
     FM120100 26008KT P6SM BKN045
     FM120400 27009KT 4SM -SHSN BKN030
      AMD LTD TO CLD VIS AND WIND=

USA.gov is the U.S. government's official web portal to all federal, state and local government web resources and services.